Historyczne dane pomiarowe

Dodano dane terminowe – wersja testowa.

Dane z okresu 1951-2019

Wersja bazy: 1.34 [2019-03-16, lista zmian], aktualizacja planowana na 2019-04-15

Dane meteo z obszaru Polski uzyskane na podstawie danych udostępnionych przez Instytut Meteorologii i Gospodarki Wodnej – Państwowy Instytut Badawczy.

 

Wybierz Datę:    

       

TemperaturaWilgotnośćWiatrCiśnienieOpadyŚniegCzas trwania zjawisk
 Stacja t tx tn tng RH VA  wxwx mslp ppp RRR   cm mm wxwxwxwxwxwxwx
1994-08-14 14.4 19.2 11.0 10.1 77.5- 6.0 8.0---- 1.8------------
1994-08-13 17.6 23.5 15.3 9.7 85.8- 7.3 3.3---- 6.3------------
1994-08-12 16.8 23.0 9.6 4.5 78.0- 4.0 3.7---- 0.0------------
1994-08-11 17.7 24.5 8.7 4.4 69.5- 2.7 4.3---- 0.0------------
1994-08-10 18.9 24.1 13.5 9.1 71.5- 2.0 2.7---- 0.0------------
1994-08-09 19.9 24.0 16.6 14.0 74.8- 7.0 2.3---- 0.0------------
1994-08-08 19.8 26.8 13.3 9.5 77.8- 6.0 2.3---- 4.6------------
1994-08-07 20.7 25.7 17.1 13.5 74.0- 3.0 4.7---- 0.0------------
1994-08-06 24.7 33.9 17.5 13.7 63.0- 3.7 3.3---- 0.0------------
1994-08-05 23.3 31.4 15.5 11.2 67.8- 2.3 2.0---- 0.0------------
1994-08-04 22.5 28.6 17.2 13.4 79.0- 4.0 4.3---- 0.0------------
1994-08-03 21.6 27.7 19.8 17.7 80.8- 7.3 3.3---- 2.8------------
1994-08-02 25.0 33.3 16.5 12.2 62.8- 5.0 1.3---- 0.0------------
1994-08-01 25.1 31.9 18.3 14.5 68.3- 4.7 4.7---- 0.0------------
1994-07-31 26.6 35.1 16.8 12.3 58.8- 3.3 2.3---- 0.0------------
1994-07-30 26.6 34.8 16.2 12.5 55.5- 1.0 0.7---- 0.0------------
1994-07-29 26.2 34.9 15.2 10.5 51.5- 1.7 2.0---- 0.0------------
1994-07-28 24.9 33.6 13.2 8.9 51.0- 0.0 3.7---- 0.0------------
1994-07-27 23.9 31.9 12.5 7.7 46.5- 0.3 3.7---- 0.0------------
1994-07-26 23.2 30.8 11.7 7.6 53.5- 1.0 4.7---- 0.0------------
1994-07-25 20.9 28.9 9.6 4.8 66.3- 0.7 5.0---- 0.0------------
1994-07-24 20.8 28.4 10.9 6.0 57.0- 0.7 4.0---- 0.0------------
1994-07-23 19.5 27.0 9.2 4.0 66.0- 1.3 3.7---- 0.0------------
1994-07-22 17.8 25.0 9.7 4.4 69.5- 3.3 4.0---- 0.0------------
1994-07-21 18.1 25.7 10.4 5.0 62.0- 1.0 4.7---- 0.0------------
1994-07-20 16.9 22.6 8.0 2.4 64.3- 1.0 4.3---- 0.0------------
1994-07-19 16.5 21.1 8.6 3.0 65.0- 2.7 5.3---- 0.0------------
1994-07-18 17.1 22.0 11.0 6.4 68.5- 1.7 4.0---- 0.0------------
1994-07-17 18.5 23.0 14.7 11.3 73.5- 6.7 4.7---- 0.0------------
1994-07-16 22.2 29.4 15.1 9.5 71.3- 4.3 4.0---- 0.5------------
1994-07-15 25.0 31.8 15.3 10.8 54.8- 1.3 4.3---- 0.0------------
1994-07-14 24.7 31.2 15.8 11.8 61.8- 1.3 2.7---- 0.0------------
1994-07-13 24.2 30.8 14.4 9.8 58.3- 1.0 4.0---- 0.0------------
1994-07-12 22.9 30.2 13.5 8.9 62.0- 1.3 5.0---- 0.0------------
1994-07-11 20.8 27.8 12.7 8.1 69.8- 1.3 3.0---- 0.0------------
1994-07-10 18.9 26.5 11.4 7.2 72.3- 2.7 2.0---- 0.0------------
1994-07-09 16.6 20.7 12.2 11.6 84.0- 4.7 3.3---- 0.0------------
1994-07-08 15.5 24.6 9.1 4.2 83.3- 7.3 3.0---- 13.9------------
1994-07-07 17.2 24.1 7.2 1.2 60.8- 0.7 4.0---- 0.0------------
1994-07-06 16.1 22.5 7.8 2.3 64.0- 2.0 3.3---- 0.0------------
1994-07-05 15.4 22.8 6.7 -0.1 73.0- 1.7 4.0---- 0.0------------
1994-07-04 17.2 24.0 8.7 3.8 69.0- 1.7 5.0---- 0.0------------
1994-07-03 15.5 22.5 5.9 0.2 62.5- 1.0 4.3---- 0.0------------
1994-07-02 14.8 20.8 6.0 1.2 70.0- 0.0 3.7---- 0.0------------
1994-07-01 14.9 18.7 9.4 6.1 72.0- 2.0 5.7---- 0.0------------
1994-06-30 17.6 24.3 15.6 13.0 69.8- 3.7 7.3---- 0.0------------
1994-06-29 20.4 26.8 11.7 6.3 66.5- 0.7 3.0---- 0.0------------
1994-06-28 18.9 24.3 11.0 6.0 69.3- 1.3 4.3---- 0.0------------
1994-06-27 19.3 25.8 14.8 10.5 71.8- 3.7 4.3---- 0.0------------
1994-06-26 21.3 28.3 12.3 6.0 53.3- 0.0 3.7---- 0.0------------
1994-06-25 14.5 21.7 7.0 1.6 74.0- 2.0 4.0---- 0.0------------
1994-06-24 12.0 15.4 9.6 6.9 72.5- 5.3 8.7---- 0.0------------
1994-06-23 13.0 16.2 8.9 8.7 65.0- 6.7 12.7---- 3.0------------
1994-06-22 16.5 21.3 13.7 8.0 73.0- 7.3 7.3---- 0.3------------
1994-06-21 14.5 20.5 7.2 4.0 71.5- 1.7 4.0---- 0.4------------
1994-06-20 13.1 16.0 10.7 8.5 71.5- 4.0 9.3---- 0.0------------
1994-06-19 12.4 14.8 10.7 9.5 97.8- 8.0 5.3---- 8.4------------
1994-06-18 11.4 17.0 4.5 1.7 70.5- 4.3 5.3---- 3.5------------
1994-06-17 9.7 13.6 4.5 2.3 76.0- 3.7 6.0---- 0.3------------
1994-06-16 10.0 12.8 6.3 6.9 82.0- 6.7 4.7---- 7.8------------
312.9 ms

 

Źródłem pochodzenia danych jest Instytut Meteorologii i Gospodarki Wodnej – Państwowy Instytut Badawczy. Dane Instytutu Meteorologii i Gospodarki Wodnej – Państwowego Instytutu Badawczego zostały przetworzone.

Dane źródłowe można odnaleźć na stronie https://dane.imgw.pl